»·PEaware :: UAL52 KIAD-LSZH

UAL52 :: KIAD-LSZH

FLIGHT INFORMATION

Flight Status: Arrived
Operator:
United Airlines
More flights by this operator :: More flights under this callsign
Pilot: Anonymous 13363 (13363)
Aircraft: BOEING 777-200
(B772)
More flights by this aircraft type
Origin: KIAD Washington Dulles Intl
United States
Destination: LSZH Zurich
Switzerland
More flights between these airports :: More routes between these airports
Route: JCOBY3 SWANN EBONY/N0484F390 N325A ELSIR/M084F390 NATS MALOT/N0492F410 GISTI LODLA LESLU UM142 INSUN UN160 PIGOP UN491 MELKO UM606 BLM BLM2G
File this flight plan on PilotEdge
Remarks:
Altitude:
(Current/Filed)
37,000ft
Speed:
(Current/Filed)
483kts
Departed: 14-Apr-18 11:47 PM
Arrived: 15-Apr-18 10:15 AM
Distance/Time
Traveled:
3601nm/10:28
Distance/Time
To Go:
Arrived

Flight Plot

Page will automatically refresh every two minutes.

Flight plan parsing failed; only flown route is shown


Map Options




Map Legend


Flown Route
Filed Route
Departure Airport
Arrival Airport
Navaid (VOR, NDB)
Fix

Horizontal Profiles

Position Reports

Time Latitude Longitude Heading Altitude Ground
Speed
14-Apr-18 23:32 38.945913 -77.442392 197 325ft 0kts
14-Apr-18 23:33 38.945913 -77.442392 197 325ft 0kts
14-Apr-18 23:34 38.945913 -77.442392 197 325ft 0kts
14-Apr-18 23:35 38.946385 -77.442347 153 325ft 2kts
14-Apr-18 23:36 38.946588 -77.442932 90 325ft 2kts
14-Apr-18 23:37 38.946589 -77.443028 90 325ft 0kts
14-Apr-18 23:38 38.946589 -77.443028 90 325ft 0kts
14-Apr-18 23:39 38.946589 -77.443028 90 325ft 0kts
14-Apr-18 23:40 38.946576 -77.440902 90 325ft 11kts
14-Apr-18 23:41 38.948749 -77.439683 1 325ft 9kts
14-Apr-18 23:42 38.951354 -77.439612 0 325ft 12kts
14-Apr-18 23:43 38.954983 -77.438958 105 325ft 13kts
14-Apr-18 23:44 38.954820 -77.435956 126 325ft 0kts
14-Apr-18 23:45 38.954654 -77.435901 185 325ft 1kts
14-Apr-18 23:46 38.937010 -77.436221 180 421ft 187kts
14-Apr-18 23:47 38.883813 -77.420390 128 4999ft 232kts
14-Apr-18 23:48 38.907296 -77.333956 54 7960ft 293kts
14-Apr-18 23:49 38.958413 -77.244977 54 10972ft 339kts
14-Apr-18 23:50 39.020644 -77.137788 53 13326ft 402kts
14-Apr-18 23:51 39.087265 -77.015902 66 16506ft 426kts
14-Apr-18 23:52 39.109924 -76.863946 88 19342ft 444kts
14-Apr-18 23:53 39.114453 -76.701865 91 22233ft 461kts
14-Apr-18 23:54 39.118265 -76.533192 90 24866ft 481kts
14-Apr-18 23:55 39.136759 -76.359440 84 27697ft 498kts
14-Apr-18 23:56 39.182345 -76.189377 54 30527ft 514kts
14-Apr-18 23:57 39.278317 -76.052285 44 33249ft 514kts
14-Apr-18 23:58 39.375712 -75.920108 45 36035ft 501kts
14-Apr-18 23:59 39.471722 -75.789005 43 37108ft 499kts
15-Apr-18 00:00 39.566508 -75.658133 44 37118ft 498kts
15-Apr-18 00:01 39.661040 -75.526796 44 37121ft 498kts
15-Apr-18 00:02 39.755728 -75.394634 44 37149ft 498kts
15-Apr-18 00:03 39.849894 -75.262634 44 37186ft 498kts
15-Apr-18 00:04 39.944149 -75.129926 44 37197ft 497kts
15-Apr-18 00:05 40.037900 -74.997350 44 37224ft 499kts
15-Apr-18 00:06 40.132271 -74.863317 44 37223ft 502kts
15-Apr-18 00:07 40.226790 -74.728465 44 37218ft 501kts
15-Apr-18 00:08 40.320810 -74.593747 45 37227ft 501kts
15-Apr-18 00:09 40.414487 -74.458916 45 37252ft 500kts
15-Apr-18 00:10 40.508337 -74.323230 45 37287ft 501kts
15-Apr-18 00:11 40.601803 -74.187486 45 37297ft 501kts
15-Apr-18 00:12 40.695372 -74.050987 45 37297ft 501kts
15-Apr-18 00:13 40.788954 -73.913835 45 37549ft 508kts
15-Apr-18 00:14 40.881679 -73.777324 44 39325ft 498kts
15-Apr-18 00:15 40.974320 -73.640333 44 39301ft 499kts
15-Apr-18 00:16 41.066647 -73.503173 44 39304ft 500kts
15-Apr-18 00:17 41.143644 -73.388303 44 39319ft 501kts
15-Apr-18 00:18 41.236304 -73.249482 44 39328ft 501kts
15-Apr-18 00:19 41.344084 -73.087192 44 39330ft 502kts
15-Apr-18 00:20 41.436329 -72.947596 44 39338ft 503kts
15-Apr-18 00:21 41.528801 -72.806999 44 39359ft 503kts
15-Apr-18 00:22 41.605590 -72.689739 43 39367ft 503kts
15-Apr-18 00:23 41.697615 -72.548604 43 39385ft 504kts
15-Apr-18 00:24 41.789785 -72.406574 43 39393ft 504kts
15-Apr-18 00:25 41.881541 -72.264509 43 39401ft 505kts
15-Apr-18 00:26 41.973484 -72.121433 43 39393ft 505kts
15-Apr-18 00:27 42.065216 -71.978057 43 39397ft 505kts
15-Apr-18 00:28 42.156602 -71.834511 43 39393ft 506kts
15-Apr-18 00:29 42.248267 -71.689818 43 39393ft 506kts
15-Apr-18 00:30 42.339612 -71.544866 43 39429ft 508kts
15-Apr-18 00:31 42.431017 -71.399256 43 39456ft 509kts
15-Apr-18 00:32 42.522523 -71.252633 43 39465ft 509kts
15-Apr-18 00:33 42.613843 -71.105666 43 39486ft 510kts
15-Apr-18 00:34 42.705313 -70.957625 43 39496ft 510kts
15-Apr-18 00:35 42.796431 -70.809415 43 39489ft 511kts
15-Apr-18 00:36 42.887407 -70.660717 43 39490ft 511kts
15-Apr-18 00:37 42.978577 -70.510928 43 39490ft 512kts
15-Apr-18 00:38 43.069449 -70.360896 43 39493ft 513kts
15-Apr-18 00:39 43.160369 -70.209975 43 39506ft 515kts
15-Apr-18 00:40 43.251793 -70.057470 43 39516ft 518kts
15-Apr-18 00:41 43.342992 -69.904529 42 39526ft 518kts
15-Apr-18 00:42 43.433994 -69.751108 42 39533ft 519kts
15-Apr-18 00:43 43.525258 -69.596435 42 39541ft 519kts
15-Apr-18 00:44 43.616016 -69.441807 42 39544ft 520kts
15-Apr-18 00:45 43.706827 -69.286247 42 39543ft 518kts
15-Apr-18 00:46 43.797115 -69.130762 42 39541ft 518kts
15-Apr-18 00:47 43.886990 -68.975140 42 39539ft 518kts
15-Apr-18 00:48 43.976974 -68.818507 42 39540ft 518kts
15-Apr-18 00:49 44.066697 -68.661488 42 39543ft 523kts
15-Apr-18 00:50 44.156874 -68.502825 42 39548ft 522kts
15-Apr-18 00:51 44.246806 -68.343666 42 39549ft 521kts
15-Apr-18 00:52 44.336220 -68.184551 42 39546ft 521kts
15-Apr-18 00:53 44.425377 -68.025087 42 39547ft 522kts
15-Apr-18 00:54 44.514756 -67.864244 42 39550ft 522kts
15-Apr-18 00:55 44.603795 -67.703153 42 39552ft 524kts
15-Apr-18 00:56 44.693048 -67.540821 42 39553ft 525kts
15-Apr-18 00:57 44.782360 -67.378154 42 39546ft 527kts
15-Apr-18 00:58 44.870969 -67.214473 42 39547ft 525kts
15-Apr-18 00:59 44.952049 -67.038986 52 39544ft 543kts
15-Apr-18 01:00 45.023416 -66.851673 52 39544ft 541kts
15-Apr-18 01:01 45.096408 -66.666052 50 39543ft 540kts
15-Apr-18 01:02 45.170173 -66.479721 51 39538ft 542kts
15-Apr-18 01:03 45.243185 -66.292679 51 39527ft 543kts
15-Apr-18 01:04 45.316231 -66.104111 51 39523ft 543kts
15-Apr-18 01:05 45.388711 -65.915705 51 39520ft 544kts
15-Apr-18 01:06 45.461006 -65.726492 51 39521ft 545kts
15-Apr-18 01:07 45.533274 -65.536034 51 39523ft 545kts
15-Apr-18 01:08 45.604987 -65.345706 52 39523ft 545kts
15-Apr-18 01:09 45.676227 -65.155314 52 39521ft 543kts
15-Apr-18 01:10 45.747333 -64.963946 52 39517ft 544kts
15-Apr-18 01:11 45.817988 -64.772450 52 39510ft 544kts
15-Apr-18 01:12 45.887180 -64.583590 52 39509ft 545kts
15-Apr-18 01:13 45.957720 -64.389686 52 39508ft 548kts
15-Apr-18 01:14 46.027980 -64.195156 52 39507ft 549kts
15-Apr-18 01:15 46.098250 -63.999176 52 39503ft 550kts
15-Apr-18 01:16 46.167983 -63.803264 52 39497ft 550kts
15-Apr-18 01:17 46.237432 -63.606709 53 39493ft 550kts
15-Apr-18 01:18 46.306741 -63.409092 53 39487ft 549kts
15-Apr-18 01:19 46.375416 -63.211820 53 39488ft 550kts
15-Apr-18 01:20 46.443826 -63.013828 53 39484ft 549kts
15-Apr-18 01:21 46.511974 -62.815152 53 39472ft 549kts
15-Apr-18 01:22 46.579610 -62.616444 53 39448ft 549kts
15-Apr-18 01:23 46.647120 -62.416531 53 39418ft 550kts
15-Apr-18 01:24 46.714190 -62.216420 53 39385ft 551kts
15-Apr-18 01:25 46.780953 -62.015703 54 39352ft 551kts
15-Apr-18 01:26 46.847665 -61.813591 54 39326ft 552kts
15-Apr-18 01:27 46.913883 -61.611373 54 39299ft 552kts
15-Apr-18 01:28 46.979825 -61.408424 54 39289ft 553kts
15-Apr-18 01:29 47.045751 -61.203905 54 39279ft 554kts
15-Apr-18 01:30 47.111150 -60.999304 54 39281ft 555kts
15-Apr-18 01:31 47.176350 -60.793764 55 39286ft 557kts
15-Apr-18 01:32 47.241598 -60.586399 55 39290ft 558kts
15-Apr-18 01:33 47.306328 -60.378920 55 39292ft 559kts
15-Apr-18 01:34 47.371145 -60.169477 55 39293ft 562kts
15-Apr-18 01:35 47.435608 -59.959475 56 39270ft 563kts
15-Apr-18 01:36 47.499715 -59.748760 56 39272ft 563kts
15-Apr-18 01:37 47.563671 -59.536819 56 39262ft 563kts
15-Apr-18 01:38 47.627065 -59.324888 56 39253ft 563kts
15-Apr-18 01:39 47.690054 -59.112597 56 39248ft 564kts
15-Apr-18 01:40 47.752841 -58.898986 56 39232ft 565kts
15-Apr-18 01:41 47.815174 -58.685133 57 39229ft 564kts
15-Apr-18 01:42 47.877385 -58.469973 57 39208ft 565kts
15-Apr-18 01:43 47.939119 -58.254364 57 39203ft 567kts
15-Apr-18 01:44 48.000549 -58.037838 58 39198ft 564kts
15-Apr-18 01:45 48.061740 -57.820255 58 39196ft 570kts
15-Apr-18 01:46 48.122522 -57.602264 58 39191ft 568kts
15-Apr-18 01:47 48.182848 -57.383658 58 39173ft 567kts
15-Apr-18 01:48 48.242680 -57.165014 59 39086ft 565kts
15-Apr-18 01:49 48.301945 -56.946401 59 39076ft 566kts
15-Apr-18 01:50 48.360755 -56.727463 59 39065ft 566kts
15-Apr-18 01:51 48.419498 -56.506584 59 39049ft 568kts
15-Apr-18 01:52 48.477818 -56.285249 59 39034ft 569kts
15-Apr-18 01:53 48.536041 -56.061959 59 38979ft 572kts
15-Apr-18 01:54 48.593687 -55.839191 59 38946ft 569kts
15-Apr-18 01:55 48.650717 -55.616336 60 38918ft 570kts
15-Apr-18 01:56 48.707311 -55.393071 60 38893ft 566kts
15-Apr-18 01:57 48.763120 -55.170753 61 38871ft 562kts
15-Apr-18 01:58 48.818172 -54.949170 61 38852ft 563kts
15-Apr-18 01:59 48.872972 -54.726375 61 38842ft 561kts
15-Apr-18 02:00 48.927077 -54.504201 62 38840ft 561kts
15-Apr-18 02:01 48.980842 -54.281209 62 38839ft 560kts
15-Apr-18 02:02 49.033915 -54.058843 62 38838ft 559kts
15-Apr-18 02:03 49.086376 -53.836788 63 38837ft 555kts
15-Apr-18 02:04 49.138310 -53.614695 63 38836ft 554kts
15-Apr-18 02:05 49.189579 -53.393171 63 38825ft 553kts
15-Apr-18 02:06 49.240381 -53.171377 64 38819ft 553kts
15-Apr-18 02:07 49.290870 -52.948624 64 38815ft 552kts
15-Apr-18 02:08 49.340684 -52.726537 65 38788ft 551kts
15-Apr-18 02:09 49.390110 -52.503806 65 38776ft 549kts
15-Apr-18 02:10 49.439220 -52.282413 66 38778ft 548kts
15-Apr-18 02:11 49.486927 -52.060827 66 38779ft 545kts
15-Apr-18 02:12 49.539561 -51.842975 61 38841ft 540kts
15-Apr-18 02:13 49.595479 -51.628204 62 38842ft 541kts
15-Apr-18 02:14 49.650860 -51.413013 62 38844ft 541kts
15-Apr-18 02:15 49.706307 -51.196100 63 38845ft 542kts
15-Apr-18 02:16 49.760818 -50.978952 63 38846ft 543kts
15-Apr-18 02:17 49.815067 -50.760700 63 38848ft 542kts
15-Apr-18 02:18 49.868642 -50.543000 64 38849ft 540kts
15-Apr-18 02:19 49.922133 -50.325895 64 38851ft 539kts
15-Apr-18 02:20 49.974339 -50.107610 65 38852ft 537kts
15-Apr-18 02:21 50.019424 -49.885871 73 38853ft 543kts
15-Apr-18 02:22 50.049288 -49.656064 74 38854ft 542kts
15-Apr-18 02:23 50.080845 -49.426590 73 38856ft 539kts
15-Apr-18 02:24 50.113522 -49.198955 74 38856ft 539kts
15-Apr-18 02:25 50.144862 -48.971248 74 38857ft 537kts
15-Apr-18 02:26 50.175728 -48.742660 75 38844ft 538kts
15-Apr-18 02:27 50.206061 -48.514289 75 38845ft 538kts
15-Apr-18 02:28 50.236107 -48.284455 75 38846ft 540kts
15-Apr-18 02:29 50.265692 -48.054373 75 38847ft 541kts
15-Apr-18 02:30 50.294823 -47.823973 76 38848ft 541kts
15-Apr-18 02:31 50.323524 -47.592969 76 38847ft 539kts
15-Apr-18 02:32 50.351450 -47.364411 75 38851ft 532kts
15-Apr-18 02:33 50.378762 -47.137034 76 38855ft 531kts
15-Apr-18 02:34 50.405658 -46.909226 76 38855ft 530kts
15-Apr-18 02:35 50.427632 -46.719949 76 38856ft 530kts
15-Apr-18 02:36 50.453616 -46.492420 77 38857ft 531kts
15-Apr-18 02:37 50.479292 -46.263400 77 38858ft 532kts
15-Apr-18 02:38 50.504472 -46.034584 77 38859ft 533kts
15-Apr-18 02:39 50.533372 -45.766390 78 38861ft 532kts
15-Apr-18 02:40 50.553536 -45.575705 78 38862ft 530kts
15-Apr-18 02:41 50.577242 -45.347370 78 38851ft 529kts
15-Apr-18 02:42 50.600509 -45.118772 79 38838ft 527kts
15-Apr-18 02:43 50.623197 -44.891188 79 38839ft 527kts
15-Apr-18 02:44 50.645423 -44.663558 79 38840ft 526kts
15-Apr-18 02:45 50.667273 -44.435027 80 38843ft 527kts
15-Apr-18 02:46 50.688662 -44.206546 80 38844ft 527kts
15-Apr-18 02:47 50.709588 -43.977888 80 38845ft 527kts
15-Apr-18 02:48 50.730120 -43.748580 81 38847ft 526kts
15-Apr-18 02:49 50.750097 -43.520188 81 38848ft 525kts
15-Apr-18 02:50 50.769642 -43.291435 81 38850ft 524kts
15-Apr-18 02:51 50.788645 -43.063653 82 38851ft 523kts
15-Apr-18 02:52 50.807173 -42.836059 82 38852ft 523kts
15-Apr-18 02:53 50.825315 -42.607561 82 38854ft 523kts
15-Apr-18 02:54 50.842953 -42.379645 82 38855ft 522kts
15-Apr-18 02:55 50.860146 -42.151573 83 38857ft 522kts
15-Apr-18 02:56 50.876951 -41.922619 83 38858ft 522kts
15-Apr-18 02:57 50.893228 -41.694501 84 38860ft 521kts
15-Apr-18 02:58 50.909088 -41.465888 84 38861ft 521kts
15-Apr-18 02:59 50.924440 -41.238042 84 38862ft 520kts
15-Apr-18 03:00 50.939345 -41.010120 85 38864ft 520kts
15-Apr-18 03:01 50.953840 -40.781547 85 38865ft 520kts
15-Apr-18 03:02 50.967836 -40.553745 85 38867ft 519kts
15-Apr-18 03:03 50.981937 -40.326009 85 38868ft 519kts
15-Apr-18 03:04 50.994624 -40.097355 86 38870ft 519kts
15-Apr-18 03:05 51.015859 -39.871191 77 38871ft 520kts
15-Apr-18 03:06 51.049435 -39.648002 78 38872ft 520kts
15-Apr-18 03:07 51.080990 -39.423386 77 38873ft 520kts
15-Apr-18 03:08 51.113227 -39.199689 78 38875ft 519kts
15-Apr-18 03:09 51.144061 -38.975535 78 38876ft 519kts
15-Apr-18 03:10 51.174436 -38.750459 79 38877ft 518kts
15-Apr-18 03:11 51.204211 -38.526241 79 38878ft 517kts
15-Apr-18 03:12 51.233596 -38.301396 79 38880ft 516kts
15-Apr-18 03:13 51.262388 -38.077523 79 38881ft 515kts
15-Apr-18 03:14 51.290714 -37.853654 80 38881ft 515kts
15-Apr-18 03:15 51.318701 -37.628815 80 38882ft 514kts
15-Apr-18 03:16 51.346160 -37.404525 80 38883ft 515kts
15-Apr-18 03:17 51.373218 -37.179643 80 38884ft 515kts
15-Apr-18 03:18 51.399959 -36.953604 80 38881ft 516kts
15-Apr-18 03:19 51.426164 -36.728161 81 38881ft 515kts
15-Apr-18 03:20 51.451976 -36.502173 81 38882ft 513kts
15-Apr-18 03:21 51.477212 -36.277106 81 38882ft 512kts
15-Apr-18 03:22 51.501940 -36.052602 81 38883ft 511kts
15-Apr-18 03:23 51.526282 -35.827403 81 38883ft 511kts
15-Apr-18 03:24 51.550109 -35.602564 82 38883ft 512kts
15-Apr-18 03:25 51.573581 -35.377080 82 38884ft 513kts
15-Apr-18 03:26 51.596732 -35.150097 82 38885ft 514kts
15-Apr-18 03:27 51.619391 -34.923525 82 38886ft 513kts
15-Apr-18 03:28 51.641602 -34.696799 82 38886ft 513kts
15-Apr-18 03:29 51.663433 -34.469217 83 38887ft 512kts
15-Apr-18 03:30 51.684679 -34.242975 83 38886ft 510kts
15-Apr-18 03:31 51.705490 -34.016569 83 38887ft 509kts
15-Apr-18 03:32 51.725763 -33.791080 83 38887ft 509kts
15-Apr-18 03:33 51.745634 -33.565048 84 38887ft 510kts
15-Apr-18 03:34 51.765187 -33.337447 84 38887ft 512kts
15-Apr-18 03:35 51.784301 -33.109650 84 38887ft 513kts
15-Apr-18 03:36 51.803009 -32.881200 84 38887ft 513kts
15-Apr-18 03:37 51.821345 -32.651762 84 38887ft 513kts
15-Apr-18 03:38 51.839123 -32.423577 85 38887ft 511kts
15-Apr-18 03:39 51.856444 -32.195196 85 38887ft 510kts
15-Apr-18 03:40 51.873247 -31.968033 85 38887ft 509kts
15-Apr-18 03:41 51.889573 -31.740901 85 38887ft 509kts
15-Apr-18 03:42 51.905552 -31.512431 85 38888ft 510kts
15-Apr-18 03:43 51.921073 -31.284121 85 38887ft 511kts
15-Apr-18 03:44 51.936199 -31.054941 85 38910ft 512kts
15-Apr-18 03:45 51.950918 -30.825079 85 38983ft 511kts
15-Apr-18 03:46 51.965104 -30.596385 85 38983ft 510kts
15-Apr-18 03:47 51.979446 -30.368157 85 38982ft 508kts
15-Apr-18 03:48 51.992259 -30.139640 86 38982ft 507kts
15-Apr-18 03:49 52.009925 -29.913170 78 38984ft 508kts
15-Apr-18 03:50 52.043214 -29.690452 77 38982ft 508kts
15-Apr-18 03:51 52.074590 -29.466533 78 38981ft 506kts
15-Apr-18 03:52 52.106734 -29.244091 77 38980ft 505kts
15-Apr-18 03:53 52.137640 -29.020855 78 38979ft 504kts
15-Apr-18 03:54 52.167725 -28.798402 78 38978ft 503kts
15-Apr-18 03:55 52.197345 -28.575619 78 38977ft 504kts
15-Apr-18 03:56 52.226663 -28.351803 78 38976ft 504kts
15-Apr-18 03:57 52.255453 -28.128396 78 38974ft 504kts
15-Apr-18 03:58 52.283872 -27.904436 78 38974ft 504kts
15-Apr-18 03:59 52.311890 -27.679806 78 38973ft 503kts
15-Apr-18 04:00 52.339354 -27.456052 79 38972ft 502kts
15-Apr-18 04:01 52.366313 -27.232723 79 38971ft 500kts
15-Apr-18 04:02 52.392874 -27.008943 79 38967ft 499kts
15-Apr-18 04:03 52.418852 -26.786244 79 38992ft 499kts
15-Apr-18 04:04 52.444463 -26.562804 79 38991ft 497kts
15-Apr-18 04:05 52.469559 -26.340011 79 38991ft 497kts
15-Apr-18 04:06 52.494248 -26.116707 79 38990ft 498kts
15-Apr-18 04:07 52.518604 -25.892335 80 38988ft 498kts
15-Apr-18 04:08 52.542417 -25.669046 80 38988ft 496kts
15-Apr-18 04:09 52.565753 -25.445949 80 38982ft 495kts
15-Apr-18 04:10 52.588695 -25.222360 80 38981ft 494kts
15-Apr-18 04:11 52.611164 -24.999047 81 38923ft 493kts
15-Apr-18 04:12 52.633102 -24.776646 81 38957ft 494kts
15-Apr-18 04:13 52.654738 -24.552834 81 40732ft 493kts
15-Apr-18 04:14 52.675972 -24.328564 81 40911ft 494kts
15-Apr-18 04:15 52.696693 -24.105067 82 40907ft 494kts
15-Apr-18 04:16 52.716988 -23.881421 82 40906ft 493kts
15-Apr-18 04:17 52.736863 -23.657555 82 40906ft 492kts
15-Apr-18 04:18 52.756234 -23.434453 82 40905ft 491kts
15-Apr-18 04:19 52.775165 -23.211390 82 40905ft 491kts
15-Apr-18 04:20 52.793722 -22.987603 82 40751ft 490kts
15-Apr-18 04:21 52.811766 -22.764773 83 40733ft 490kts
15-Apr-18 04:22 52.829388 -22.541812 83 40723ft 489kts
15-Apr-18 04:23 52.846624 -22.318259 83 40718ft 489kts
15-Apr-18 04:24 52.863382 -22.095313 83 40685ft 489kts
15-Apr-18 04:25 52.879774 -21.871483 84 40656ft 488kts
15-Apr-18 04:26 52.895676 -21.648449 84 40652ft 488kts
15-Apr-18 04:27 52.911133 -21.425676 84 40648ft 487kts
15-Apr-18 04:28 52.926211 -21.202179 84 40643ft 487kts
15-Apr-18 04:29 52.940812 -20.979434 84 40638ft 486kts
15-Apr-18 04:30 52.954981 -20.756791 85 40633ft 486kts
15-Apr-18 04:31 52.968779 -20.533508 84 40629ft 486kts
15-Apr-18 04:32 52.982614 -20.310966 85 40624ft 485kts
15-Apr-18 04:33 52.995076 -20.088250 85 40544ft 485kts
15-Apr-18 04:34 53.003802 -19.864609 90 40538ft 483kts
15-Apr-18 04:35 53.006343 -19.641665 89 40534ft 483kts
15-Apr-18 04:36 53.009299 -19.418025 89 40531ft 483kts
15-Apr-18 04:37 53.013860 -19.195233 89 40527ft 483kts
15-Apr-18 04:38 53.017020 -18.972576 89 40523ft 483kts
15-Apr-18 04:39 53.019596 -18.749189 90 40519ft 483kts
15-Apr-18 04:40 53.021723 -18.526616 90 40516ft 482kts
15-Apr-18 04:41 53.023432 -18.304172 90 40512ft 482kts
15-Apr-18 04:42 53.024728 -18.081115 90 40508ft 482kts
15-Apr-18 04:43 53.025605 -17.858943 91 40505ft 481kts
15-Apr-18 04:44 53.026068 -17.636211 91 40502ft 481kts
15-Apr-18 04:45 53.026115 -17.414237 91 40498ft 481kts
15-Apr-18 04:46 53.025750 -17.192377 91 40495ft 481kts
15-Apr-18 04:47 53.024971 -16.969904 91 40491ft 480kts
15-Apr-18 04:48 53.023781 -16.748324 92 40488ft 480kts
15-Apr-18 04:49 53.022180 -16.526821 92 40485ft 480kts
15-Apr-18 04:50 53.020163 -16.304719 92 40482ft 480kts
15-Apr-18 04:51 53.017743 -16.083527 92 40479ft 479kts
15-Apr-18 04:52 53.015415 -15.899282 92 40476ft 479kts
15-Apr-18 04:53 53.012239 -15.677687 93 40473ft 479kts
15-Apr-18 04:54 53.009203 -15.456831 92 40470ft 479kts
15-Apr-18 04:55 53.005044 -15.236043 93 40467ft 479kts
15-Apr-18 04:56 52.999672 -14.977833 92 40471ft 479kts
15-Apr-18 04:57 53.000210 -14.793646 91 40470ft 479kts
15-Apr-18 04:58 53.000330 -14.571852 91 40467ft 479kts
15-Apr-18 04:59 53.001563 -14.350882 92 40464ft 479kts
15-Apr-18 05:00 53.000597 -14.129981 92 40461ft 479kts
15-Apr-18 05:01 52.981412 -13.914164 116 40461ft 471kts
15-Apr-18 05:02 52.920877 -13.721849 118 40455ft 471kts
15-Apr-18 05:03 52.862840 -13.527451 117 40452ft 472kts
15-Apr-18 05:04 52.806308 -13.331049 117 40450ft 472kts
15-Apr-18 05:05 52.749274 -13.136067 117 40448ft 472kts
15-Apr-18 05:06 52.691716 -12.941839 117 40446ft 472kts
15-Apr-18 05:07 52.633620 -12.747494 118 40443ft 471kts
15-Apr-18 05:08 52.575423 -12.554397 118 40442ft 472kts
15-Apr-18 05:09 52.516674 -12.361029 118 40438ft 472kts
15-Apr-18 05:10 52.457714 -12.168514 118 40436ft 473kts
15-Apr-18 05:11 52.398401 -11.976384 118 40435ft 473kts
15-Apr-18 05:12 52.338310 -11.783269 119 40421ft 477kts
15-Apr-18 05:13 52.277868 -11.590559 119 40420ft 476kts
15-Apr-18 05:14 52.217227 -11.398729 119 40418ft 476kts
15-Apr-18 05:15 52.156168 -11.207081 119 40431ft 475kts
15-Apr-18 05:16 52.095101 -11.016885 119 40429ft 474kts
15-Apr-18 05:17 52.034003 -10.826269 120 40427ft 474kts
15-Apr-18 05:18 51.972037 -10.637530 120 40425ft 475kts
15-Apr-18 05:19 51.908659 -10.449159 122 40424ft 475kts
15-Apr-18 05:20 51.841937 -10.263965 122 40421ft 475kts
15-Apr-18 05:21 51.775492 -10.079859 122 40420ft 475kts
15-Apr-18 05:22 51.709922 -9.895153 122 40421ft 475kts
15-Apr-18 05:23 51.643372 -9.710791 122 40424ft 475kts
15-Apr-18 05:24 51.576512 -9.527535 123 40430ft 476kts
15-Apr-18 05:25 51.509288 -9.344672 123 40464ft 476kts
15-Apr-18 05:26 51.441477 -9.161538 123 40475ft 477kts
15-Apr-18 05:27 51.373541 -8.979367 123 40485ft 477kts
15-Apr-18 05:28 51.305136 -8.797241 123 40493ft 477kts
15-Apr-18 05:29 51.236649 -8.616174 123 40502ft 477kts
15-Apr-18 05:30 51.167886 -8.435589 123 40525ft 477kts
15-Apr-18 05:31 51.098895 -8.254496 124 40567ft 477kts
15-Apr-18 05:32 51.029211 -8.075109 124 40587ft 477kts
15-Apr-18 05:33 50.961769 -7.893510 121 40611ft 478kts
15-Apr-18 05:34 50.896948 -7.708697 121 40638ft 479kts
15-Apr-18 05:35 50.831512 -7.525276 121 40668ft 479kts
15-Apr-18 05:36 50.766867 -7.341320 121 40704ft 479kts
15-Apr-18 05:37 50.701059 -7.157926 122 40741ft 479kts
15-Apr-18 05:38 50.635074 -6.975633 122 40832ft 479kts
15-Apr-18 05:39 50.568820 -6.793899 122 40854ft 479kts
15-Apr-18 05:40 50.502450 -6.611614 123 40873ft 479kts
15-Apr-18 05:41 50.435264 -6.430999 123 40889ft 480kts
15-Apr-18 05:42 50.367633 -6.249945 123 40851ft 481kts
15-Apr-18 05:43 50.299821 -6.069936 123 40822ft 481kts
15-Apr-18 05:44 50.232543 -5.889498 123 40803ft 481kts
15-Apr-18 05:45 50.163893 -5.709892 123 40766ft 481kts
15-Apr-18 05:46 50.093795 -5.533047 125 40728ft 479kts
15-Apr-18 05:47 50.021577 -5.358971 125 40706ft 479kts
15-Apr-18 05:48 49.949163 -5.184522 125 40706ft 481kts
15-Apr-18 05:49 49.877532 -5.009456 125 40703ft 481kts
15-Apr-18 05:50 49.804716 -4.835055 126 40710ft 481kts
15-Apr-18 05:51 49.731642 -4.662332 126 40719ft 480kts
15-Apr-18 05:52 49.658651 -4.490049 126 40731ft 479kts
15-Apr-18 05:53 49.587895 -4.314928 116 40756ft 485kts
15-Apr-18 05:54 49.555213 -4.112368 104 40770ft 489kts
15-Apr-18 05:55 49.524657 -3.908662 106 40782ft 488kts
15-Apr-18 05:56 49.493445 -3.704696 106 40789ft 488kts
15-Apr-18 05:57 49.461888 -3.501693 106 40793ft 489kts
15-Apr-18 05:58 49.429611 -3.299063 106 40807ft 489kts
15-Apr-18 05:59 49.396834 -3.095991 106 40813ft 489kts
15-Apr-18 06:00 49.363777 -2.893657 107 40815ft 489kts
15-Apr-18 06:01 49.330273 -2.691017 107 40816ft 489kts
15-Apr-18 06:02 49.296783 -2.489418 106 40814ft 489kts
15-Apr-18 06:03 49.262891 -2.288304 107 40815ft 488kts
15-Apr-18 06:04 49.228099 -2.087056 107 40816ft 488kts
15-Apr-18 06:05 49.214687 -1.879507 93 40819ft 494kts
15-Apr-18 06:06 49.210793 -1.669980 95 40824ft 493kts
15-Apr-18 06:07 49.205164 -1.459895 94 40828ft 494kts
15-Apr-18 06:08 49.199657 -1.250469 95 40844ft 493kts
15-Apr-18 06:09 49.193189 -1.041126 95 40854ft 494kts
15-Apr-18 06:10 49.186855 -0.830891 95 40864ft 494kts
15-Apr-18 06:11 49.179234 -0.621473 95 40874ft 494kts
15-Apr-18 06:12 49.163732 -0.413981 112 40875ft 485kts
15-Apr-18 06:13 49.110237 -0.225423 115 40880ft 485kts
15-Apr-18 06:14 49.059114 -0.035291 115 40889ft 485kts
15-Apr-18 06:15 49.007481 0.154602 116 40898ft 484kts
15-Apr-18 06:16 48.956940 0.344340 115 40918ft 484kts
15-Apr-18 06:17 48.905020 0.532983 116 40926ft 484kts
15-Apr-18 06:18 48.852592 0.721745 116 40930ft 484kts
15-Apr-18 06:19 48.801964 0.910861 114 40934ft 485kts
15-Apr-18 06:20 48.751231 1.100633 116 40935ft 485kts
15-Apr-18 06:21 48.699715 1.288891 116 40938ft 484kts
15-Apr-18 06:22 48.666086 1.487254 104 40937ft 490kts
15-Apr-18 06:23 48.638435 1.689701 105 40942ft 490kts
15-Apr-18 06:24 48.611302 1.891480 105 40938ft 490kts
15-Apr-18 06:25 48.583005 2.092652 105 40936ft 490kts
15-Apr-18 06:26 48.564989 2.297610 93 40939ft 496kts
15-Apr-18 06:27 48.560171 2.504999 95 40951ft 495kts
15-Apr-18 06:28 48.553268 2.711945 95 40963ft 494kts
15-Apr-18 06:29 48.546309 2.919317 95 40964ft 493kts
15-Apr-18 06:30 48.538901 3.125779 95 40964ft 493kts
15-Apr-18 06:31 48.531688 3.332236 95 40964ft 493kts
15-Apr-18 06:32 48.524460 3.539299 95 40964ft 493kts
15-Apr-18 06:33 48.516818 3.745526 96 40964ft 493kts
15-Apr-18 06:34 48.507986 3.952253 96 40964ft 493kts
15-Apr-18 06:35 48.466916 4.142851 124 40968ft 479kts
15-Apr-18 06:36 48.402491 4.318494 120 40966ft 480kts
15-Apr-18 06:37 48.340473 4.496836 121 40964ft 480kts
15-Apr-18 06:38 48.278067 4.673779 121 40964ft 480kts
15-Apr-18 06:39 48.276348 4.678651 121 40964ft 480kts
15-Apr-18 06:40 48.276348 4.678651 121 40964ft 480kts
15-Apr-18 06:41 48.276348 4.678651 121 40964ft 480kts
15-Apr-18 06:42 48.276348 4.678651 121 40964ft 480kts
15-Apr-18 06:43 48.276348 4.678651 121 40964ft 480kts
15-Apr-18 06:44 48.276348 4.678651 121 40964ft 480kts
15-Apr-18 06:45 48.276348 4.678651 121 40964ft 480kts
15-Apr-18 06:46 48.276348 4.678651 121 40964ft 480kts
15-Apr-18 06:47 48.276348 4.678651 121 40964ft 480kts
15-Apr-18 06:48 48.276348 4.678651 121 40964ft 480kts
15-Apr-18 06:49 48.276348 4.678651 121 40964ft 480kts
15-Apr-18 06:50 48.276348 4.678651 121 40964ft 480kts
15-Apr-18 06:51 48.276348 4.678651 121 40964ft 480kts
15-Apr-18 06:52 48.276348 4.678651 121 40964ft 480kts
15-Apr-18 06:53 48.276348 4.678651 121 40964ft 480kts
15-Apr-18 06:54 48.276348 4.678651 121 40964ft 480kts
15-Apr-18 06:55 48.276348 4.678651 121 40964ft 480kts
15-Apr-18 06:56 48.276348 4.678651 121 40964ft 480kts
15-Apr-18 06:57 48.276348 4.678651 121 40964ft 480kts
15-Apr-18 06:58 48.276348 4.678651 121 40964ft 480kts
15-Apr-18 06:59 48.276348 4.678651 121 40964ft 480kts
15-Apr-18 07:00 48.276348 4.678651 121 40964ft 480kts
15-Apr-18 07:01 48.276348 4.678651 121 40964ft 480kts
15-Apr-18 07:02 48.276348 4.678651 121 40964ft 480kts
15-Apr-18 07:03 48.276348 4.678651 121 40964ft 480kts
15-Apr-18 07:04 48.276348 4.678651 121 40964ft 480kts
15-Apr-18 07:05 48.276348 4.678651 121 40964ft 480kts
15-Apr-18 07:06 48.276348 4.678651 121 40964ft 480kts
15-Apr-18 07:07 48.276348 4.678651 121 40964ft 480kts
15-Apr-18 07:08 48.276348 4.678651 121 40964ft 480kts
15-Apr-18 07:09 48.276348 4.678651 121 40964ft 480kts
15-Apr-18 07:10 48.276348 4.678651 121 40964ft 480kts
15-Apr-18 07:11 48.276348 4.678651 121 40964ft 480kts
15-Apr-18 07:12 48.276348 4.678651 121 40964ft 480kts
15-Apr-18 07:13 48.276348 4.678651 121 40964ft 480kts
15-Apr-18 07:14 48.276348 4.678651 121 40964ft 480kts
15-Apr-18 07:15 48.276348 4.678651 121 40964ft 480kts
15-Apr-18 07:16 48.276348 4.678651 121 40964ft 480kts
15-Apr-18 07:17 48.276348 4.678651 121 40964ft 480kts
15-Apr-18 07:18 48.276348 4.678651 121 40964ft 480kts
15-Apr-18 07:19 48.276348 4.678651 121 40964ft 480kts
15-Apr-18 07:20 48.276348 4.678651 121 40964ft 480kts
15-Apr-18 07:21 48.276348 4.678651 121 40964ft 480kts
15-Apr-18 07:22 48.276348 4.678651 121 40964ft 480kts
15-Apr-18 07:23 48.276348 4.678651 121 40964ft 480kts
15-Apr-18 07:24 48.276348 4.678651 121 40964ft 480kts
15-Apr-18 07:25 48.276348 4.678651 121 40964ft 480kts
15-Apr-18 07:26 48.276348 4.678651 121 40964ft 480kts
15-Apr-18 07:27 48.276348 4.678651 121 40964ft 480kts
15-Apr-18 07:28 48.276348 4.678651 121 40964ft 480kts
15-Apr-18 07:29 48.276348 4.678651 121 40964ft 480kts
15-Apr-18 07:30 48.276348 4.678651 121 40964ft 480kts
15-Apr-18 07:31 48.276348 4.678651 121 40964ft 480kts
15-Apr-18 07:32 48.276348 4.678651 121 40964ft 480kts
15-Apr-18 07:33 48.276348 4.678651 121 40964ft 480kts
15-Apr-18 07:34 48.276348 4.678651 121 40964ft 480kts
15-Apr-18 07:35 48.276348 4.678651 121 40964ft 480kts
15-Apr-18 07:36 48.276348 4.678651 121 40964ft 480kts
15-Apr-18 07:37 48.276348 4.678651 121 40964ft 480kts
15-Apr-18 07:38 48.276348 4.678651 121 40964ft 480kts
15-Apr-18 07:39 48.276348 4.678651 121 40964ft 480kts
15-Apr-18 07:40 48.276348 4.678651 121 40964ft 480kts
15-Apr-18 07:41 48.276348 4.678651 121 40964ft 480kts
15-Apr-18 07:42 48.276348 4.678651 121 40964ft 480kts
15-Apr-18 07:43 48.276348 4.678651 121 40964ft 480kts
15-Apr-18 07:44 48.276348 4.678651 121 40964ft 480kts
15-Apr-18 07:45 48.276348 4.678651 121 40964ft 480kts
15-Apr-18 07:46 48.276348 4.678651 121 40964ft 480kts
15-Apr-18 07:47 48.276348 4.678651 121 40964ft 480kts
15-Apr-18 07:48 48.276348 4.678651 121 40964ft 480kts
15-Apr-18 07:49 48.276348 4.678651 121 40964ft 480kts
15-Apr-18 07:50 48.276348 4.678651 121 40964ft 480kts
15-Apr-18 07:51 48.276348 4.678651 121 40964ft 480kts
15-Apr-18 07:52 48.276348 4.678651 121 40964ft 480kts
15-Apr-18 07:53 48.276348 4.678651 121 40964ft 480kts
15-Apr-18 07:54 48.276348 4.678651 121 40964ft 480kts
15-Apr-18 07:55 48.276348 4.678651 121 40964ft 480kts
15-Apr-18 07:56 48.276348 4.678651 121 40964ft 480kts
15-Apr-18 07:57 48.276348 4.678651 121 40964ft 480kts
15-Apr-18 07:58 48.276348 4.678651 121 40964ft 480kts
15-Apr-18 07:59 48.276348 4.678651 121 40964ft 480kts
15-Apr-18 08:00 48.276348 4.678651 121 40964ft 480kts
15-Apr-18 08:01 48.276348 4.678651 121 40964ft 480kts
15-Apr-18 08:02 48.276348 4.678651 121 40964ft 480kts
15-Apr-18 08:03 48.276348 4.678651 121 40964ft 480kts
15-Apr-18 08:04 48.276348 4.678651 121 40964ft 480kts
15-Apr-18 08:05 48.276348 4.678651 121 40964ft 480kts
15-Apr-18 08:06 48.276348 4.678651 121 40964ft 480kts
15-Apr-18 08:07 48.276348 4.678651 121 40964ft 480kts
15-Apr-18 08:08 48.276348 4.678651 121 40964ft 480kts
15-Apr-18 08:09 48.276348 4.678651 121 40964ft 480kts
15-Apr-18 08:10 48.276348 4.678651 121 40964ft 480kts
15-Apr-18 08:11 48.276348 4.678651 121 40964ft 480kts
15-Apr-18 08:12 48.276348 4.678651 121 40964ft 480kts
15-Apr-18 08:13 48.276348 4.678651 121 40964ft 480kts
15-Apr-18 08:14 48.276348 4.678651 121 40964ft 480kts
15-Apr-18 08:15 48.276348 4.678651 121 40964ft 480kts
15-Apr-18 08:16 48.276348 4.678651 121 40964ft 480kts
15-Apr-18 08:17 48.276348 4.678651 121 40964ft 480kts
15-Apr-18 08:18 48.276348 4.678651 121 40964ft 480kts
15-Apr-18 08:19 48.276348 4.678651 121 40964ft 480kts
15-Apr-18 08:20 48.276348 4.678651 121 40964ft 480kts
15-Apr-18 08:21 48.276348 4.678651 121 40964ft 480kts
15-Apr-18 08:22 48.276348 4.678651 121 40964ft 480kts
15-Apr-18 08:23 48.276348 4.678651 121 40964ft 480kts
15-Apr-18 08:24 48.276348 4.678651 121 40964ft 480kts
15-Apr-18 08:25 48.276348 4.678651 121 40964ft 480kts
15-Apr-18 08:26 48.276348 4.678651 121 40964ft 480kts
15-Apr-18 08:27 48.276348 4.678651 121 40964ft 480kts
15-Apr-18 08:28 48.276348 4.678651 121 40964ft 480kts
15-Apr-18 08:29 48.276348 4.678651 121 40964ft 480kts
15-Apr-18 08:30 48.276348 4.678651 121 40964ft 480kts
15-Apr-18 08:31 48.276348 4.678651 121 40964ft 480kts
15-Apr-18 08:32 48.276348 4.678651 121 40964ft 480kts
15-Apr-18 08:33 48.276348 4.678651 121 40964ft 480kts
15-Apr-18 08:34 48.276348 4.678651 121 40964ft 480kts
15-Apr-18 08:35 48.276348 4.678651 121 40964ft 480kts
15-Apr-18 08:36 48.276348 4.678651 121 40964ft 480kts
15-Apr-18 08:37 48.276348 4.678651 121 40964ft 480kts
15-Apr-18 08:38 48.276348 4.678651 121 40964ft 480kts
15-Apr-18 08:39 48.276348 4.678651 121 40964ft 480kts
15-Apr-18 08:40 48.276348 4.678651 121 40964ft 480kts
15-Apr-18 08:41 48.276348 4.678651 121 40964ft 480kts
15-Apr-18 08:42 48.276348 4.678651 121 40964ft 480kts
15-Apr-18 08:43 48.276348 4.678651 121 40964ft 480kts
15-Apr-18 08:44 48.276348 4.678651 121 40964ft 480kts
15-Apr-18 08:45 48.276348 4.678651 121 40964ft 480kts
15-Apr-18 08:46 48.276348 4.678651 121 40964ft 480kts
15-Apr-18 08:47 48.276348 4.678651 121 40964ft 480kts
15-Apr-18 08:48 48.276348 4.678651 121 40964ft 480kts
15-Apr-18 08:49 48.276348 4.678651 121 40964ft 480kts
15-Apr-18 08:50 48.276348 4.678651 121 40964ft 480kts
15-Apr-18 08:51 48.276348 4.678651 121 40964ft 480kts
15-Apr-18 08:52 48.276348 4.678651 121 40964ft 480kts
15-Apr-18 08:53 48.276348 4.678651 121 40964ft 480kts
15-Apr-18 08:54 48.276348 4.678651 121 40964ft 480kts
15-Apr-18 08:55 48.276348 4.678651 121 40964ft 480kts
15-Apr-18 08:56 48.276348 4.678651 121 40964ft 480kts
15-Apr-18 08:57 48.276348 4.678651 121 40964ft 480kts
15-Apr-18 08:58 48.276348 4.678651 121 40964ft 480kts
15-Apr-18 08:59 48.276348 4.678651 121 40964ft 480kts
15-Apr-18 09:00 48.276348 4.678651 121 40964ft 480kts
15-Apr-18 09:01 48.276348 4.678651 121 40964ft 480kts
15-Apr-18 09:02 48.276348 4.678651 121 40964ft 480kts
15-Apr-18 09:03 48.276348 4.678651 121 40964ft 480kts
15-Apr-18 09:04 48.276348 4.678651 121 40964ft 480kts
15-Apr-18 09:05 48.276348 4.678651 121 40964ft 480kts
15-Apr-18 09:06 48.276348 4.678651 121 40964ft 480kts
15-Apr-18 09:07 48.276348 4.678651 121 40964ft 480kts
15-Apr-18 09:08 48.276348 4.678651 121 40964ft 480kts
15-Apr-18 09:09 48.276348 4.678651 121 40964ft 480kts
15-Apr-18 09:10 48.276348 4.678651 121 40964ft 480kts
15-Apr-18 09:11 48.276348 4.678651 121 40964ft 480kts
15-Apr-18 09:12 48.276348 4.678651 121 40964ft 480kts
15-Apr-18 09:13 48.276348 4.678651 121 40964ft 480kts
15-Apr-18 09:14 48.276348 4.678651 121 40964ft 480kts
15-Apr-18 09:15 48.276348 4.678651 121 40964ft 480kts
15-Apr-18 09:16 48.276348 4.678651 121 40964ft 480kts
15-Apr-18 09:17 48.276348 4.678651 121 40964ft 480kts
15-Apr-18 09:18 48.276348 4.678651 121 40964ft 480kts
15-Apr-18 09:19 48.276348 4.678651 121 40964ft 480kts
15-Apr-18 09:20 48.276348 4.678651 121 40964ft 480kts
15-Apr-18 09:21 48.276348 4.678651 121 40964ft 480kts
15-Apr-18 09:22 48.276348 4.678651 121 40964ft 480kts
15-Apr-18 09:23 48.276348 4.678651 121 40964ft 480kts
15-Apr-18 09:24 48.276348 4.678651 121 40964ft 480kts
15-Apr-18 09:25 48.276348 4.678651 121 40964ft 480kts
15-Apr-18 09:26 48.276348 4.678651 121 40964ft 480kts
15-Apr-18 09:27 48.276348 4.678651 121 40964ft 480kts
15-Apr-18 09:28 48.276348 4.678651 121 40964ft 480kts
15-Apr-18 09:29 48.276348 4.678651 121 40964ft 480kts
15-Apr-18 09:30 48.276348 4.678651 121 40964ft 480kts
15-Apr-18 09:31 48.276348 4.678651 121 40964ft 480kts
15-Apr-18 09:32 48.276348 4.678651 121 40964ft 480kts
15-Apr-18 09:33 48.276348 4.678651 121 40964ft 480kts
15-Apr-18 09:34 48.276348 4.678651 121 40964ft 480kts
15-Apr-18 09:35 48.276348 4.678651 121 40964ft 480kts
15-Apr-18 09:36 48.276348 4.678651 121 40964ft 480kts
15-Apr-18 09:37 48.276348 4.678651 121 40964ft 480kts
15-Apr-18 09:38 48.276348 4.678651 121 40964ft 480kts
15-Apr-18 09:39 48.276348 4.678651 121 40964ft 480kts
15-Apr-18 09:40 48.276348 4.678651 121 40964ft 480kts
15-Apr-18 09:41 48.276348 4.678651 121 40964ft 480kts
15-Apr-18 09:42 48.276348 4.678651 121 40964ft 480kts
15-Apr-18 09:43 48.246086 4.764646 120 40962ft 481kts
15-Apr-18 09:44 48.183346 4.942191 121 40965ft 480kts
15-Apr-18 09:45 48.150577 5.033542 121 40966ft 480kts
15-Apr-18 09:46 48.092154 5.215548 110 40079ft 503kts
15-Apr-18 09:47 48.055796 5.416495 109 37777ft 501kts
15-Apr-18 09:48 48.016651 5.616838 109 34623ft 501kts
15-Apr-18 09:49 47.977479 5.816316 110 31119ft 497kts
15-Apr-18 09:50 47.938466 6.011910 110 27626ft 486kts
15-Apr-18 09:51 47.900321 6.202177 110 24136ft 473kts
15-Apr-18 09:52 47.865052 6.383344 110 21504ft 447kts
15-Apr-18 09:53 47.829394 6.557042 110 18819ft 424kts
15-Apr-18 09:54 47.794969 6.724668 110 16012ft 408kts
15-Apr-18 09:55 47.762529 6.884868 109 13273ft 393kts
15-Apr-18 09:56 47.730843 7.036476 108 11426ft 362kts
15-Apr-18 09:57 47.702447 7.171778 108 10425ft 325kts
15-Apr-18 09:58 47.676895 7.294268 107 9671ft 292kts
15-Apr-18 09:59 47.653319 7.404866 107 9664ft 276kts
15-Apr-18 10:00 47.630049 7.513202 108 9664ft 276kts
15-Apr-18 10:01 47.604839 7.620408 109 9663ft 276kts
15-Apr-18 10:02 47.579354 7.727890 109 9664ft 275kts
15-Apr-18 10:03 47.554337 7.835035 109 9664ft 276kts
15-Apr-18 10:04 47.528867 7.941986 109 9664ft 276kts
15-Apr-18 10:05 47.511961 8.049314 78 9529ft 257kts
15-Apr-18 10:06 47.548589 8.133702 53 8692ft 251kts
15-Apr-18 10:07 47.590158 8.219912 55 7176ft 250kts
15-Apr-18 10:08 47.626414 8.301563 67 5965ft 219kts
15-Apr-18 10:09 47.606195 8.371079 137 4881ft 189kts
15-Apr-18 10:10 47.567443 8.418920 136 3771ft 171kts
15-Apr-18 10:11 47.535239 8.463190 137 2796ft 150kts
15-Apr-18 10:12 47.504750 8.505057 136 2175ft 148kts
15-Apr-18 10:13 47.475022 8.545899 136 1441ft 126kts
15-Apr-18 10:14 47.461671 8.563820 140 1430ft 13kts

Navigation Log

Ident Type
Flight plan parsing failed, navigation log unavailable